Time,TemperatureF,DewpointF,PressureIn,WindDirection,WindDirectionDegrees,WindSpeedMPH,WindSpeedGustMPH,Humidity,HourlyPrecipIn,Conditions,Clouds,dailyrainin,SoftwareType,DateUTC
2013-10-04 01:31:00,68.0,62.0,29.90,SSE,158,0.0,0.0,82,0.02,,,0.02,,2013-10-04 05:31:00,
2013-10-04 01:59:00,67.0,62.0,29.89,SSE,158,0.0,0.0,85,0.02,,,0.02,,2013-10-04 05:59:00,
2013-10-04 02:27:00,67.0,62.0,29.89,SSE,158,0.0,0.0,84,0.00,,,0.02,,2013-10-04 06:27:00,
2013-10-04 02:55:00,67.0,62.0,29.91,SSE,158,0.0,0.0,85,0.00,,,0.02,,2013-10-04 06:55:00,
2013-10-04 03:27:00,66.0,61.0,29.91,SW,225,0.0,0.0,85,0.00,,,0.02,,2013-10-04 07:27:00,
2013-10-04 03:58:00,66.0,62.0,29.89,SW,225,0.0,0.0,86,0.04,,,0.06,,2013-10-04 07:58:00,
2013-10-04 04:27:00,66.0,62.0,29.88,SSW,203,0.0,0.0,87,0.08,,,0.10,,2013-10-04 08:27:00,
2013-10-04 04:58:00,66.0,62.0,29.88,SSW,203,0.0,0.0,87,0.04,,,0.10,,2013-10-04 08:58:00,
2013-10-04 05:27:00,66.0,62.0,29.87,South,180,0.0,0.0,88,0.02,,,0.10,,2013-10-04 09:27:00,
2013-10-04 05:57:00,66.0,62.0,29.88,SSW,203,0.0,0.0,88,0.00,,,0.10,,2013-10-04 09:57:00,
2013-10-04 06:29:00,66.0,62.0,29.91,SSW,203,0.0,0.0,88,0.02,,,0.12,,2013-10-04 10:29:00,
2013-10-04 06:58:00,65.0,61.0,29.92,SSW,203,0.0,0.0,88,0.02,,,0.12,,2013-10-04 10:58:00,
2013-10-04 07:29:00,65.0,62.0,29.92,SSW,203,0.0,0.0,89,0.00,,,0.12,,2013-10-04 11:29:00,
2013-10-04 08:00:00,65.0,62.0,29.93,SSW,203,0.0,0.0,89,0.00,,,0.12,,2013-10-04 12:00:00,
2013-10-04 08:29:00,65.0,62.0,29.95,SSW,203,0.0,0.0,89,0.00,,,0.12,,2013-10-04 12:29:00,
2013-10-04 09:00:00,65.0,62.0,29.95,SW,225,0.0,0.0,89,0.00,,,0.12,,2013-10-04 13:00:00,
2013-10-04 09:28:00,66.0,63.0,29.96,SW,225,0.0,0.0,89,0.00,,,0.12,,2013-10-04 13:28:00,
2013-10-04 10:00:00,67.0,64.0,29.96,SW,225,0.0,0.0,89,0.00,,,0.12,,2013-10-04 14:00:00,
2013-10-04 10:28:00,67.0,64.0,29.96,WSW,248,0.0,0.0,89,0.00,,,0.12,,2013-10-04 14:28:00,
2013-10-04 11:00:00,68.0,65.0,29.96,SW,225,0.0,0.0,89,0.00,,,0.12,,2013-10-04 15:00:00,
2013-10-04 11:29:00,70.0,66.0,29.97,SSW,203,0.0,0.0,88,0.00,,,0.12,,2013-10-04 15:29:00,
2013-10-04 12:01:00,72.0,68.0,29.97,SW,225,0.0,0.0,86,0.00,,,0.12,,2013-10-04 16:01:00,
2013-10-04 12:29:00,72.0,67.0,29.96,WSW,248,0.0,6.0,84,0.00,,,0.12,,2013-10-04 16:29:00,
2013-10-04 13:01:00,72.0,67.0,29.97,SW,225,0.0,0.0,84,0.00,,,0.12,,2013-10-04 17:01:00,
2013-10-04 13:29:00,73.0,68.0,29.97,SW,225,0.0,2.0,83,0.00,,,0.12,,2013-10-04 17:29:00,
2013-10-04 14:30:00,74.0,67.0,29.97,WSW,248,0.0,0.0,79,0.00,,,0.12,,2013-10-04 18:30:00,
2013-10-04 14:55:00,74.0,67.0,29.97,SSW,203,0.0,0.0,78,0.00,,,0.12,,2013-10-04 18:55:00,
2013-10-04 15:22:00,73.0,66.0,29.96,SW,225,0.0,0.0,79,0.00,,,0.12,,2013-10-04 19:22:00,
2013-10-04 15:52:00,74.0,67.0,29.96,SW,225,0.0,0.0,78,0.00,,,0.12,,2013-10-04 19:52:00,
2013-10-04 16:22:00,74.0,66.0,29.96,NE,45,0.0,0.0,77,0.00,,,0.12,,2013-10-04 20:22:00,
2013-10-04 16:52:00,73.0,65.0,29.96,East,90,0.0,0.0,77,0.00,,,0.12,,2013-10-04 20:52:00,
2013-10-04 17:22:00,73.0,65.0,29.96,NNE,23,0.0,0.0,77,0.00,,,0.12,,2013-10-04 21:22:00,
2013-10-04 17:54:00,71.0,63.0,29.98,NE,45,0.0,0.0,77,0.00,,,0.12,,2013-10-04 21:54:00,
2013-10-04 18:23:00,69.0,62.0,29.99,NW,315,0.0,0.0,79,0.00,,,0.12,,2013-10-04 22:23:00,
2013-10-04 18:52:00,67.0,61.0,29.98,NE,45,0.0,0.0,81,0.00,,,0.12,,2013-10-04 22:52:00,
2013-10-04 19:22:00,67.0,61.0,29.99,NE,45,0.0,0.0,81,0.00,,,0.12,,2013-10-04 23:22:00,
2013-10-04 19:53:00,67.0,61.0,30.00,NE,45,0.0,0.0,81,0.00,,,0.12,,2013-10-04 23:53:00,
2013-10-04 20:22:00,67.0,61.0,30.01,NE,45,0.0,0.0,81,0.00,,,0.12,,2013-10-05 00:22:00,
2013-10-04 20:42:00,67.0,61.0,30.00,NE,45,0.0,0.0,81,0.00,,,0.12,,2013-10-05 00:42:00,
2013-10-04 20:52:00,67.0,61.0,30.01,NE,45,0.0,0.0,81,0.00,,,0.12,,2013-10-05 00:52:00,
2013-10-04 21:21:00,67.0,61.0,30.02,NE,45,0.0,0.0,81,0.00,,,0.12,,2013-10-05 01:21:00,
2013-10-04 21:52:00,67.0,61.0,30.01,NE,45,0.0,0.0,81,0.00,,,0.12,,2013-10-05 01:52:00,
2013-10-04 22:22:00,67.0,61.0,30.01,NE,45,0.0,0.0,81,0.00,,,0.12,,2013-10-05 02:22:00,
2013-10-04 22:52:00,67.0,61.0,30.01,NE,45,0.0,0.0,81,0.00,,,0.12,,2013-10-05 02:52:00,
2013-10-04 23:23:00,67.0,61.0,30.01,NE,45,0.0,0.0,81,0.00,,,0.12,,2013-10-05 03:23:00,
2013-10-04 23:55:00,62.0,59.0,30.02,NE,45,0.0,0.0,89,0.00,,,0.12,,2013-10-05 03:55:00,